KSTL/STL METAR and TAF weather

Enter ICAO airport designator
Station Type Date Time Source
KSTL METAR 2019/10/14 05:51 UTC NOAA

KSTL 140551Z 00000KT 10SM CLR 09/06 A3003 RMK AO2 SLP165 T00940061 10156 20094 402110067 51014


Station Type Date Time Source
KSTL Decoded METAR 2019/10/14 05:51 UTC NOAA

LAMBERT-ST LOUIS INTERNATIONAL AIRPORT , MO, United States (KSTL) 38-45N 90-22W 171M
Oct 14, 2019 - 01:51 AM EDT / 2019.10.14 0551 UTC
Wind: Calm:0
Visibility: 10 mile(s):0
Sky conditions: clear
Temperature: 48.9 F (9.4 C)
Dew Point: 43.0 F (6.1 C)
Relative Humidity: 79%
Pressure (altimeter): 30.03 in. Hg (1016 hPa)
Pressure tendency: 0.04 inches (1.4 hPa) higher than three hours ago
ob: KSTL 140551Z 00000KT 10SM CLR 09/06 A3003 RMK AO2 SLP165 T00940061 10156 20094 402110067 51014
cycle: 6

Station Type Date Time Source
KSTL TAF 2019/10/14 06:22 UTC NOAA

TAF KSTL 140520Z 1406/1512 VRB03KT P6SM SKC
FM142000 15008KT P6SM SKC

Example: see airport list